Terminal Aerodrome Forecast
Issued by NWS Bismarck, ND

Home | Current Version | Previous Version | Text Only | Print | Product List | Glossary On
Versions: 1 2 3 4 5 6 7 8 9 10 11 12 13 14 15 16 17 18 19 20 21 22 23 24 25 26 27 28 29 30 31 32 33 34 35 36 37 38 39 40 41 42 43 44 45
000
FTUS43 KBIS 260207 AAA
TAFBIS
TAF AMD
KBIS 260207Z 2602/2624 16006KT P6SM OVC022
     FM260600 17006KT P6SM OVC012
     FM261000 18006KT P6SM BKN006
     FM261700 18008KT P6SM BKN016
     FM262100 18010KT P6SM BKN040=

USA.gov is the U.S. government's official web portal to all federal, state and local government web resources and services.